sensor_id;sensor_type;location;lat;lon;timestamp;pressure;altitude;pressure_sealevel;temperature
73734;BMP280;62039;50.000;9.064;2023-03-01T00:00:06;101514.06;;;-0.21
73734;BMP280;62039;50.000;9.064;2023-03-01T00:02:33;101516.69;;;-0.22
73734;BMP280;62039;50.000;9.064;2023-03-01T00:05:01;101513.47;;;-0.27
73734;BMP280;62039;50.000;9.064;2023-03-01T00:07:28;101514.47;;;-0.31
73734;BMP280;62039;50.000;9.064;2023-03-01T00:09:54;101515.50;;;-0.35
73734;BMP280;62039;50.000;9.064;2023-03-01T00:12:21;101520.69;;;-0.37
73734;BMP280;62039;50.000;9.064;2023-03-01T00:14:47;101516.44;;;-0.38
73734;BMP280;62039;50.000;9.064;2023-03-01T00:17:14;101519.09;;;-0.39
73734;BMP280;62039;50.000;9.064;2023-03-01T00:19:40;101519.09;;;-0.39
73734;BMP280;62039;50.000;9.064;2023-03-01T00:22:08;101511.41;;;-0.39
73734;BMP280;62039;50.000;9.064;2023-03-01T00:24:35;101507.16;;;-0.40
73734;BMP280;62039;50.000;9.064;2023-03-01T00:27:02;101507.16;;;-0.40
73734;BMP280;62039;50.000;9.064;2023-03-01T00:29:28;101502.91;;;-0.41
73734;BMP280;62039;50.000;9.064;2023-03-01T00:31:55;101497.84;;;-0.43
73734;BMP280;62039;50.000;9.064;2023-03-01T00:34:21;101496.09;;;-0.43
73734;BMP280;62039;50.000;9.064;2023-03-01T00:36:48;101496.88;;;-0.40
73734;BMP280;62039;50.000;9.064;2023-03-01T00:39:16;101483.00;;;-0.36
73734;BMP280;62039;50.000;9.064;2023-03-01T00:41:42;101480.38;;;-0.35
73734;BMP280;62039;50.000;9.064;2023-03-01T00:44:09;101478.59;;;-0.33
73734;BMP280;62039;50.000;9.064;2023-03-01T00:46:36;101476.78;;;-0.31
73734;BMP280;62039;50.000;9.064;2023-03-01T00:49:03;101473.28;;;-0.28
73734;BMP280;62039;50.000;9.064;2023-03-01T00:51:30;101475.69;;;-0.25
73734;BMP280;62039;50.000;9.064;2023-03-01T00:53:58;101468.78;;;-0.23
73734;BMP280;62039;50.000;9.064;2023-03-01T00:56:27;101474.63;;;-0.20
73734;BMP280;62039;50.000;9.064;2023-03-01T00:58:54;101480.47;;;-0.16
73734;BMP280;62039;50.000;9.064;2023-03-01T01:01:22;101482.00;;;-0.12
73734;BMP280;62039;50.000;9.064;2023-03-01T01:03:51;101477.53;;;-0.07
73734;BMP280;62039;50.000;9.064;2023-03-01T01:06:20;101473.97;;;-0.05
73734;BMP280;62039;50.000;9.064;2023-03-01T01:08:48;101470.47;;;-0.02
73734;BMP280;62039;50.000;9.064;2023-03-01T01:11:16;101466.09;;;0.00
73734;BMP280;62039;50.000;9.064;2023-03-01T01:13:45;101459.97;;;0.03
73734;BMP280;62039;50.000;9.064;2023-03-01T01:16:13;101458.19;;;0.05
73734;BMP280;62039;50.000;9.064;2023-03-01T01:18:39;101444.44;;;0.06
73734;BMP280;62039;50.000;9.064;2023-03-01T01:21:07;101441.81;;;0.07
73734;BMP280;62039;50.000;9.064;2023-03-01T01:23:34;101443.47;;;0.08
73734;BMP280;62039;50.000;9.064;2023-03-01T01:26:06;101437.44;;;0.09
73734;BMP280;62039;50.000;9.064;2023-03-01T01:28:33;101430.56;;;0.10
73734;BMP280;62039;50.000;9.064;2023-03-01T01:31:01;101426.25;;;0.10
73734;BMP280;62039;50.000;9.064;2023-03-01T01:33:27;101433.06;;;0.11
73734;BMP280;62039;50.000;9.064;2023-03-01T01:35:54;101427.94;;;0.11
73734;BMP280;62039;50.000;9.064;2023-03-01T01:38:20;101429.59;;;0.12
73734;BMP280;62039;50.000;9.064;2023-03-01T01:40:48;101422.78;;;0.11
73734;BMP280;62039;50.000;9.064;2023-03-01T01:43:19;101420.22;;;0.11
73734;BMP280;62039;50.000;9.064;2023-03-01T01:45:46;101427.94;;;0.11
73734;BMP280;62039;50.000;9.064;2023-03-01T01:48:19;101433.06;;;0.11
73734;BMP280;62039;50.000;9.064;2023-03-01T01:50:51;101427.09;;;0.11
73734;BMP280;62039;50.000;9.064;2023-03-01T01:53:20;101427.16;;;0.09
73734;BMP280;62039;50.000;9.064;2023-03-01T01:55:50;101433.19;;;0.08
73734;BMP280;62039;50.000;9.064;2023-03-01T01:58:19;101434.00;;;0.09
73734;BMP280;62039;50.000;9.064;2023-03-01T02:00:48;101434.94;;;0.08
73734;BMP280;62039;50.000;9.064;2023-03-01T02:03:19;101434.16;;;0.06
73734;BMP280;62039;50.000;9.064;2023-03-01T02:05:51;101432.50;;;0.05
73734;BMP280;62039;50.000;9.064;2023-03-01T02:08:23;101425.69;;;0.04
73734;BMP280;62039;50.000;9.064;2023-03-01T02:10:51;101432.53;;;0.03
73734;BMP280;62039;50.000;9.064;2023-03-01T02:13:19;101428.31;;;0.02
73734;BMP280;62039;50.000;9.064;2023-03-01T02:15:45;101429.22;;;0.01
73734;BMP280;62039;50.000;9.064;2023-03-01T02:18:15;101431.81;;;0.01
73734;BMP280;62039;50.000;9.064;2023-03-01T02:20:54;101427.56;;;0.00
73734;BMP280;62039;50.000;9.064;2023-03-01T02:23:24;101431.03;;;-0.01
73734;BMP280;62039;50.000;9.064;2023-03-01T02:25:55;101424.16;;;-0.00
73734;BMP280;62039;50.000;9.064;2023-03-01T02:28:31;101421.63;;;-0.02
73734;BMP280;62039;50.000;9.064;2023-03-01T02:30:57;101413.16;;;-0.04
73734;BMP280;62039;50.000;9.064;2023-03-01T02:33:25;101419.19;;;-0.05
73734;BMP280;62039;50.000;9.064;2023-03-01T02:35:53;101409.84;;;-0.06
73734;BMP280;62039;50.000;9.064;2023-03-01T02:38:21;101406.44;;;-0.07
73734;BMP280;62039;50.000;9.064;2023-03-01T02:40:50;101403.09;;;-0.09
73734;BMP280;62039;50.000;9.064;2023-03-01T02:43:18;101399.69;;;-0.09
73734;BMP280;62039;50.000;9.064;2023-03-01T02:45:49;101398.00;;;-0.10
73734;BMP280;62039;50.000;9.064;2023-03-01T02:48:16;101390.34;;;-0.12
73734;BMP280;62039;50.000;9.064;2023-03-01T02:50:52;101392.91;;;-0.12
73734;BMP280;62039;50.000;9.064;2023-03-01T02:53:24;101385.31;;;-0.13
73734;BMP280;62039;50.000;9.064;2023-03-01T02:55:51;101387.03;;;-0.14
73734;BMP280;62039;50.000;9.064;2023-03-01T02:58:18;101386.19;;;-0.14
73734;BMP280;62039;50.000;9.064;2023-03-01T03:00:46;101381.91;;;-0.14
73734;BMP280;62039;50.000;9.064;2023-03-01T03:03:15;101375.09;;;-0.15
73734;BMP280;62039;50.000;9.064;2023-03-01T03:05:43;101374.25;;;-0.15
73734;BMP280;62039;50.000;9.064;2023-03-01T03:08:09;101369.16;;;-0.17
73734;BMP280;62039;50.000;9.064;2023-03-01T03:10:38;101367.44;;;-0.16
73734;BMP280;62039;50.000;9.064;2023-03-01T03:13:07;101364.94;;;-0.18
73734;BMP280;62039;50.000;9.064;2023-03-01T03:15:34;101364.09;;;-0.18
73734;BMP280;62039;50.000;9.064;2023-03-01T03:18:02;101352.19;;;-0.19
73734;BMP280;62039;50.000;9.064;2023-03-01T03:20:30;101348.84;;;-0.21
73734;BMP280;62039;50.000;9.064;2023-03-01T03:22:57;101346.25;;;-0.21
73734;BMP280;62039;50.000;9.064;2023-03-01T03:25:25;101347.16;;;-0.22
73734;BMP280;62039;50.000;9.064;2023-03-01T03:27:52;101344.53;;;-0.21
73734;BMP280;62039;50.000;9.064;2023-03-01T03:30:19;101341.97;;;-0.21
73734;BMP280;62039;50.000;9.064;2023-03-01T03:32:47;101339.41;;;-0.21
73734;BMP280;62039;50.000;9.064;2023-03-01T03:35:13;101331.75;;;-0.22
73734;BMP280;62039;50.000;9.064;2023-03-01T03:37:41;101336.00;;;-0.21
73734;BMP280;62039;50.000;9.064;2023-03-01T03:40:09;101330.84;;;-0.21
73734;BMP280;62039;50.000;9.064;2023-03-01T03:42:36;101332.59;;;-0.22
73734;BMP280;62039;50.000;9.064;2023-03-01T03:45:03;101331.75;;;-0.22
73734;BMP280;62039;50.000;9.064;2023-03-01T03:47:29;101341.19;;;-0.23
73734;BMP280;62039;50.000;9.064;2023-03-01T03:49:56;101340.34;;;-0.23
73734;BMP280;62039;50.000;9.064;2023-03-01T03:52:22;101334.44;;;-0.25
73734;BMP280;62039;50.000;9.064;2023-03-01T03:54:50;101330.22;;;-0.26
73734;BMP280;62039;50.000;9.064;2023-03-01T03:57:17;101331.13;;;-0.27
73734;BMP280;62039;50.000;9.064;2023-03-01T03:59:43;101336.19;;;-0.26
73734;BMP280;62039;50.000;9.064;2023-03-01T04:02:10;101337.00;;;-0.25
73734;BMP280;62039;50.000;9.064;2023-03-01T04:04:36;101337.00;;;-0.25
73734;BMP280;62039;50.000;9.064;2023-03-01T04:07:03;101336.19;;;-0.26
73734;BMP280;62039;50.000;9.064;2023-03-01T04:09:29;101348.94;;;-0.24
73734;BMP280;62039;50.000;9.064;2023-03-01T04:11:57;101341.34;;;-0.26
73734;BMP280;62039;50.000;9.064;2023-03-01T04:14:23;101337.84;;;-0.25
73734;BMP280;62039;50.000;9.064;2023-03-01T04:16:50;101344.69;;;-0.25
73734;BMP280;62039;50.000;9.064;2023-03-01T04:19:17;101337.94;;;-0.26
73734;BMP280;62039;50.000;9.064;2023-03-01T04:21:43;101338.00;;;-0.28
73734;BMP280;62039;50.000;9.064;2023-03-01T04:24:10;101336.31;;;-0.29
73734;BMP280;62039;50.000;9.064;2023-03-01T04:26:36;101332.06;;;-0.30
73734;BMP280;62039;50.000;9.064;2023-03-01T04:29:04;101331.22;;;-0.30
73734;BMP280;62039;50.000;9.064;2023-03-01T04:31:31;101333.81;;;-0.30
73734;BMP280;62039;50.000;9.064;2023-03-01T04:33:57;101331.22;;;-0.30
73734;BMP280;62039;50.000;9.064;2023-03-01T04:36:25;101328.66;;;-0.30
73734;BMP280;62039;50.000;9.064;2023-03-01T04:38:53;101324.44;;;-0.31
73734;BMP280;62039;50.000;9.064;2023-03-01T04:41:22;101329.66;;;-0.33
73734;BMP280;62039;50.000;9.064;2023-03-01T04:43:49;101327.97;;;-0.34
73734;BMP280;62039;50.000;9.064;2023-03-01T04:46:19;101324.63;;;-0.36
73734;BMP280;62039;50.000;9.064;2023-03-01T04:48:46;101328.03;;;-0.35
73734;BMP280;62039;50.000;9.064;2023-03-01T04:51:13;101334.00;;;-0.35
73734;BMP280;62039;50.000;9.064;2023-03-01T04:53:41;101334.06;;;-0.36
73734;BMP280;62039;50.000;9.064;2023-03-01T04:56:08;101335.84;;;-0.38
73734;BMP280;62039;50.000;9.064;2023-03-01T04:58:35;101335.16;;;-0.42
73734;BMP280;62039;50.000;9.064;2023-03-01T05:01:08;101332.81;;;-0.47
73734;BMP280;62039;50.000;9.064;2023-03-01T05:03:36;101336.25;;;-0.48
73734;BMP280;62039;50.000;9.064;2023-03-01T05:06:03;101336.38;;;-0.51
73734;BMP280;62039;50.000;9.064;2023-03-01T05:08:29;101331.31;;;-0.52
73734;BMP280;62039;50.000;9.064;2023-03-01T05:10:56;101339.94;;;-0.53
73734;BMP280;62039;50.000;9.064;2023-03-01T05:13:22;101333.97;;;-0.54
73734;BMP280;62039;50.000;9.064;2023-03-01T05:15:54;101332.34;;;-0.56
73734;BMP280;62039;50.000;9.064;2023-03-01T05:18:21;101331.50;;;-0.57
73734;BMP280;62039;50.000;9.064;2023-03-01T05:20:48;101334.97;;;-0.58
73734;BMP280;62039;50.000;9.064;2023-03-01T05:23:15;101326.50;;;-0.60
73734;BMP280;62039;50.000;9.064;2023-03-01T05:25:42;101326.50;;;-0.60
73734;BMP280;62039;50.000;9.064;2023-03-01T05:28:10;101326.50;;;-0.60
73734;BMP280;62039;50.000;9.064;2023-03-01T05:30:38;101321.44;;;-0.61
73734;BMP280;62039;50.000;9.064;2023-03-01T05:33:05;101322.31;;;-0.62
73734;BMP280;62039;50.000;9.064;2023-03-01T05:35:32;101316.34;;;-0.63
73734;BMP280;62039;50.000;9.064;2023-03-01T05:38:00;101319.81;;;-0.64
73734;BMP280;62039;50.000;9.064;2023-03-01T05:40:27;101324.94;;;-0.64
73734;BMP280;62039;50.000;9.064;2023-03-01T05:42:55;101319.81;;;-0.64
73734;BMP280;62039;50.000;9.064;2023-03-01T05:45:24;101313.00;;;-0.65
73734;BMP280;62039;50.000;9.064;2023-03-01T05:47:51;101313.00;;;-0.65
73734;BMP280;62039;50.000;9.064;2023-03-01T05:50:19;101314.84;;;-0.67
73734;BMP280;62039;50.000;9.064;2023-03-01T05:52:47;101313.00;;;-0.65
73734;BMP280;62039;50.000;9.064;2023-03-01T05:55:17;101317.31;;;-0.65
73734;BMP280;62039;50.000;9.064;2023-03-01T05:57:44;101319.03;;;-0.66
73734;BMP280;62039;50.000;9.064;2023-03-01T06:00:12;101313.00;;;-0.65
73734;BMP280;62039;50.000;9.064;2023-03-01T06:02:39;101308.72;;;-0.64
73734;BMP280;62039;50.000;9.064;2023-03-01T06:05:07;101311.28;;;-0.64
73734;BMP280;62039;50.000;9.064;2023-03-01T06:07:34;101307.81;;;-0.63
73734;BMP280;62039;50.000;9.064;2023-03-01T06:10:01;101313.78;;;-0.63
73734;BMP280;62039;50.000;9.064;2023-03-01T06:12:31;101318.03;;;-0.62
73734;BMP280;62039;50.000;9.064;2023-03-01T06:14:57;101317.13;;;-0.61
73734;BMP280;62039;50.000;9.064;2023-03-01T06:17:24;101314.47;;;-0.59
73734;BMP280;62039;50.000;9.064;2023-03-01T06:19:50;101311.91;;;-0.59
73734;BMP280;62039;50.000;9.064;2023-03-01T06:22:17;101311.03;;;-0.58
73734;BMP280;62039;50.000;9.064;2023-03-01T06:24:44;101311.84;;;-0.58
73734;BMP280;62039;50.000;9.064;2023-03-01T06:27:10;101308.47;;;-0.58
73734;BMP280;62039;50.000;9.064;2023-03-01T06:29:38;101303.31;;;-0.58
73734;BMP280;62039;50.000;9.064;2023-03-01T06:32:07;101309.34;;;-0.59
73734;BMP280;62039;50.000;9.064;2023-03-01T06:34:34;101305.06;;;-0.59
73734;BMP280;62039;50.000;9.064;2023-03-01T06:37:00;101311.13;;;-0.60
73734;BMP280;62039;50.000;9.064;2023-03-01T06:39:27;101307.72;;;-0.60
73734;BMP280;62039;50.000;9.064;2023-03-01T06:41:54;101305.97;;;-0.60
73734;BMP280;62039;50.000;9.064;2023-03-01T06:44:20;101304.38;;;-0.62
73734;BMP280;62039;50.000;9.064;2023-03-01T06:46:49;101302.63;;;-0.62
73734;BMP280;62039;50.000;9.064;2023-03-01T06:49:15;101307.72;;;-0.60
73734;BMP280;62039;50.000;9.064;2023-03-01T06:51:42;101301.66;;;-0.59
73734;BMP280;62039;50.000;9.064;2023-03-01T06:54:08;101300.84;;;-0.60
73734;BMP280;62039;50.000;9.064;2023-03-01T06:56:35;101304.22;;;-0.59
73734;BMP280;62039;50.000;9.064;2023-03-01T06:59:02;101303.31;;;-0.58
73734;BMP280;62039;50.000;9.064;2023-03-01T07:01:29;101298.13;;;-0.57
73734;BMP280;62039;50.000;9.064;2023-03-01T07:03:57;101298.91;;;-0.55
73734;BMP280;62039;50.000;9.064;2023-03-01T07:06:24;101289.41;;;-0.53
73734;BMP280;62039;50.000;9.064;2023-03-01T07:08:50;101293.50;;;-0.49
73734;BMP280;62039;50.000;9.064;2023-03-01T07:11:17;101294.19;;;-0.45
73734;BMP280;62039;50.000;9.064;2023-03-01T07:13:43;101299.22;;;-0.42
73734;BMP280;62039;50.000;9.064;2023-03-01T07:16:10;101293.88;;;-0.37
73734;BMP280;62039;50.000;9.064;2023-03-01T07:18:36;101289.41;;;-0.32
73734;BMP280;62039;50.000;9.064;2023-03-01T07:21:08;101292.59;;;-0.27
73734;BMP280;62039;50.000;9.064;2023-03-01T07:23:35;101285.44;;;-0.21
73734;BMP280;62039;50.000;9.064;2023-03-01T07:26:02;101287.69;;;-0.13
73734;BMP280;62039;50.000;9.064;2023-03-01T07:28:28;101288.09;;;-0.04
73734;BMP280;62039;50.000;9.064;2023-03-01T07:30:55;101290.31;;;0.04
73734;BMP280;62039;50.000;9.064;2023-03-01T07:33:26;101295.97;;;0.12
73734;BMP280;62039;50.000;9.064;2023-03-01T07:35:56;101283.50;;;0.22
73734;BMP280;62039;50.000;9.064;2023-03-01T07:38:24;101274.56;;;0.30
73734;BMP280;62039;50.000;9.064;2023-03-01T07:40:51;101266.38;;;0.41
73734;BMP280;62039;50.000;9.064;2023-03-01T07:43:18;101268.31;;;0.55
73734;BMP280;62039;50.000;9.064;2023-03-01T07:45:44;101257.44;;;0.67
73734;BMP280;62039;50.000;9.064;2023-03-01T07:48:11;101262.09;;;0.76
73734;BMP280;62039;50.000;9.064;2023-03-01T07:50:37;101261.69;;;0.85
73734;BMP280;62039;50.000;9.064;2023-03-01T07:53:04;101252.69;;;0.94
73734;BMP280;62039;50.000;9.064;2023-03-01T07:55:32;101253.03;;;1.03
73734;BMP280;62039;50.000;9.064;2023-03-01T07:57:58;101253.34;;;1.14
73734;BMP280;62039;50.000;9.064;2023-03-01T08:00:25;101252.81;;;1.25
73734;BMP280;62039;50.000;9.064;2023-03-01T08:02:51;101259.91;;;1.37
73734;BMP280;62039;50.000;9.064;2023-03-01T08:05:18;101251.66;;;1.48
73734;BMP280;62039;50.000;9.064;2023-03-01T08:07:45;101256.16;;;1.60
73734;BMP280;62039;50.000;9.064;2023-03-01T08:10:11;101255.44;;;1.74
73734;BMP280;62039;50.000;9.064;2023-03-01T08:12:39;101254.72;;;1.87
73734;BMP280;62039;50.000;9.064;2023-03-01T08:15:07;101250.56;;;2.01
73734;BMP280;62039;50.000;9.064;2023-03-01T08:17:34;101249.06;;;2.12
73734;BMP280;62039;50.000;9.064;2023-03-01T08:20:00;101247.59;;;2.24
73734;BMP280;62039;50.000;9.064;2023-03-01T08:22:27;101245.34;;;2.33
73734;BMP280;62039;50.000;9.064;2023-03-01T08:24:53;101239.59;;;2.44
73734;BMP280;62039;50.000;9.064;2023-03-01T08:27:20;101237.25;;;2.55
73734;BMP280;62039;50.000;9.064;2023-03-01T08:29:47;101241.78;;;2.66
73734;BMP280;62039;50.000;9.064;2023-03-01T08:32:14;101240.44;;;2.75
73734;BMP280;62039;50.000;9.064;2023-03-01T08:34:41;101238.91;;;2.86
73734;BMP280;62039;50.000;9.064;2023-03-01T08:37:08;101238.31;;;2.97
73734;BMP280;62039;50.000;9.064;2023-03-01T08:39:34;101228.19;;;3.08
73734;BMP280;62039;50.000;9.064;2023-03-01T08:42:01;101235.19;;;3.20
73734;BMP280;62039;50.000;9.064;2023-03-01T08:44:27;101232.84;;;3.31
73734;BMP280;62039;50.000;9.064;2023-03-01T08:46:55;101231.25;;;3.43
73734;BMP280;62039;50.000;9.064;2023-03-01T08:49:22;101228.03;;;3.53
73734;BMP280;62039;50.000;9.064;2023-03-01T08:51:48;101217.31;;;3.60
73734;BMP280;62039;50.000;9.064;2023-03-01T08:54:17;101221.19;;;3.67
73734;BMP280;62039;50.000;9.064;2023-03-01T08:56:44;101212.91;;;3.76
73734;BMP280;62039;50.000;9.064;2023-03-01T08:59:11;101204.69;;;3.83
73734;BMP280;62039;50.000;9.064;2023-03-01T09:01:38;101186.81;;;3.93
73734;BMP280;62039;50.000;9.064;2023-03-01T09:04:06;101184.50;;;4.03
73734;BMP280;62039;50.000;9.064;2023-03-01T09:06:33;101186.41;;;4.13
73734;BMP280;62039;50.000;9.064;2023-03-01T09:09:01;101185.81;;;4.22
73734;BMP280;62039;50.000;9.064;2023-03-01T09:11:28;101178.31;;;4.32
73734;BMP280;62039;50.000;9.064;2023-03-01T09:13:55;101193.97;;;4.43
73734;BMP280;62039;50.000;9.064;2023-03-01T09:16:23;101184.03;;;4.50
73734;BMP280;62039;50.000;9.064;2023-03-01T09:18:50;101180.03;;;4.58
73734;BMP280;62039;50.000;9.064;2023-03-01T09:21:19;101180.34;;;4.66
73734;BMP280;62039;50.000;9.064;2023-03-01T09:24:05;101176.31;;;4.75
73734;BMP280;62039;50.000;9.064;2023-03-01T09:26:32;101168.13;;;4.81
73734;BMP280;62039;50.000;9.064;2023-03-01T09:28:59;101168.47;;;4.89
73734;BMP280;62039;50.000;9.064;2023-03-01T09:31:25;101167.13;;;4.96
73734;BMP280;62039;50.000;9.064;2023-03-01T09:33:53;101159.66;;;5.04
73734;BMP280;62039;50.000;9.064;2023-03-01T09:36:23;101148.69;;;5.14
73734;BMP280;62039;50.000;9.064;2023-03-01T09:38:50;101154.09;;;5.23
73734;BMP280;62039;50.000;9.064;2023-03-01T09:41:28;101149.13;;;5.33
73734;BMP280;62039;50.000;9.064;2023-03-01T09:44:01;101150.22;;;5.41
73734;BMP280;62039;50.000;9.064;2023-03-01T09:46:40;101147.81;;;5.51
73734;BMP280;62039;50.000;9.064;2023-03-01T09:49:12;101153.16;;;5.61
73734;BMP280;62039;50.000;9.064;2023-03-01T09:51:54;101139.66;;;5.68
73734;BMP280;62039;50.000;9.064;2023-03-01T09:54:20;101154.59;;;5.77
73734;BMP280;62039;50.000;9.064;2023-03-01T09:57:01;101145.19;;;5.87
73734;BMP280;62039;50.000;9.064;2023-03-01T09:59:36;101151.41;;;5.98
73734;BMP280;62039;50.000;9.064;2023-03-01T10:02:21;101137.66;;;6.08
73734;BMP280;62039;50.000;9.064;2023-03-01T10:04:51;101141.25;;;6.18
73734;BMP280;62039;50.000;9.064;2023-03-01T10:07:30;101141.38;;;6.28
73734;BMP280;62039;50.000;9.064;2023-03-01T10:09:58;101133.78;;;6.38
73734;BMP280;62039;50.000;9.064;2023-03-01T10:12:33;101135.38;;;6.51
73734;BMP280;62039;50.000;9.064;2023-03-01T10:15:04;101127.59;;;6.62
73734;BMP280;62039;50.000;9.064;2023-03-01T10:17:35;101134.47;;;6.75
73734;BMP280;62039;50.000;9.064;2023-03-01T10:20:17;101129.28;;;6.86
73734;BMP280;62039;50.000;9.064;2023-03-01T10:22:45;101130.22;;;6.96
73734;BMP280;62039;50.000;9.064;2023-03-01T10:25:14;101121.53;;;7.08
73734;BMP280;62039;50.000;9.064;2023-03-01T10:27:46;101107.78;;;7.17
73734;BMP280;62039;50.000;9.064;2023-03-01T10:30:19;101105.22;;;7.28
73734;BMP280;62039;50.000;9.064;2023-03-01T10:32:49;101097.13;;;7.42
73734;BMP280;62039;50.000;9.064;2023-03-01T10:35:18;101097.88;;;7.56
73734;BMP280;62039;50.000;9.064;2023-03-01T10:38:03;101085.66;;;7.67
73734;BMP280;62039;50.000;9.064;2023-03-01T10:40:30;101082.91;;;7.80
73734;BMP280;62039;50.000;9.064;2023-03-01T10:42:58;101073.84;;;7.95
73734;BMP280;62039;50.000;9.064;2023-03-01T10:45:35;101079.44;;;8.11
73734;BMP280;62039;50.000;9.064;2023-03-01T10:48:04;101067.06;;;8.24
73734;BMP280;62039;50.000;9.064;2023-03-01T10:50:31;101064.16;;;8.39
73734;BMP280;62039;50.000;9.064;2023-03-01T10:53:00;101058.59;;;8.53
73734;BMP280;62039;50.000;9.064;2023-03-01T10:55:31;101060.91;;;8.67
73734;BMP280;62039;50.000;9.064;2023-03-01T10:58:08;101052.31;;;8.76
73734;BMP280;62039;50.000;9.064;2023-03-01T11:00:46;101056.72;;;8.85
73734;BMP280;62039;50.000;9.064;2023-03-01T11:03:14;101032.22;;;8.97
73734;BMP280;62039;50.000;9.064;2023-03-01T11:05:52;101044.34;;;9.08
73734;BMP280;62039;50.000;9.064;2023-03-01T11:08:32;101042.72;;;9.17
73734;BMP280;62039;50.000;9.064;2023-03-01T11:11:06;101038.75;;;9.32
73734;BMP280;62039;50.000;9.064;2023-03-01T11:13:33;101040.03;;;9.47
73734;BMP280;62039;50.000;9.064;2023-03-01T11:16:06;101031.56;;;9.64
73734;BMP280;62039;50.000;9.064;2023-03-01T11:18:33;101024.00;;;9.80
73734;BMP280;62039;50.000;9.064;2023-03-01T11:21:15;101021.50;;;9.98
73734;BMP280;62039;50.000;9.064;2023-03-01T11:23:44;101030.28;;;10.16
73734;BMP280;62039;50.000;9.064;2023-03-01T11:26:13;101019.09;;;10.34
73734;BMP280;62039;50.000;9.064;2023-03-01T11:28:40;101018.22;;;10.52
73734;BMP280;62039;50.000;9.064;2023-03-01T11:31:10;101018.19;;;10.72
73734;BMP280;62039;50.000;9.064;2023-03-01T11:33:43;101000.75;;;10.90
73734;BMP280;62039;50.000;9.064;2023-03-01T11:36:17;100992.94;;;11.08
73734;BMP280;62039;50.000;9.064;2023-03-01T11:38:47;100994.59;;;11.26
73734;BMP280;62039;50.000;9.064;2023-03-01T11:41:15;100977.97;;;11.45
73734;BMP280;62039;50.000;9.064;2023-03-01T11:43:49;100984.31;;;11.60
73734;BMP280;62039;50.000;9.064;2023-03-01T11:46:36;100982.00;;;11.75
73734;BMP280;62039;50.000;9.064;2023-03-01T11:49:32;100971.66;;;11.91
73734;BMP280;62039;50.000;9.064;2023-03-01T11:52:08;100974.69;;;12.04
73734;BMP280;62039;50.000;9.064;2023-03-01T11:54:49;100962.81;;;12.18
73734;BMP280;62039;50.000;9.064;2023-03-01T11:57:31;100966.34;;;12.35
73734;BMP280;62039;50.000;9.064;2023-03-01T12:00:35;100955.28;;;12.49
73734;BMP280;62039;50.000;9.064;2023-03-01T12:03:23;100950.94;;;12.66
73734;BMP280;62039;50.000;9.064;2023-03-01T12:06:04;100945.25;;;12.78
73734;BMP280;62039;50.000;9.064;2023-03-01T12:08:37;100947.41;;;12.91
73734;BMP280;62039;50.000;9.064;2023-03-01T12:11:19;100942.69;;;13.03
73734;BMP280;62039;50.000;9.064;2023-03-01T12:14:17;100937.97;;;13.14
73734;BMP280;62039;50.000;9.064;2023-03-01T12:17:08;100932.41;;;13.25
73734;BMP280;62039;50.000;9.064;2023-03-01T12:22:39;100914.88;;;13.50
73734;BMP280;62039;50.000;9.064;2023-03-01T12:25:25;100910.28;;;13.60
73734;BMP280;62039;50.000;9.064;2023-03-01T12:28:30;100902.41;;;13.68
73734;BMP280;62039;50.000;9.064;2023-03-01T12:34:23;100892.81;;;14.00
73734;BMP280;62039;50.000;9.064;2023-03-01T12:37:04;100874.72;;;14.13
73734;BMP280;62039;50.000;9.064;2023-03-01T12:39:44;100870.06;;;14.23
73734;BMP280;62039;50.000;9.064;2023-03-01T12:42:25;100865.13;;;14.28
73734;BMP280;62039;50.000;9.064;2023-03-01T12:45:18;100873.19;;;14.27
73734;BMP280;62039;50.000;9.064;2023-03-01T12:47:58;100868.25;;;14.24
73734;BMP280;62039;50.000;9.064;2023-03-01T12:50:37;100869.09;;;14.16
73734;BMP280;62039;50.000;9.064;2023-03-01T12:53:06;100861.91;;;14.10
73734;BMP280;62039;50.000;9.064;2023-03-01T12:55:35;100858.00;;;14.06
73734;BMP280;62039;50.000;9.064;2023-03-01T12:58:10;100847.66;;;14.04
73734;BMP280;62039;50.000;9.064;2023-03-01T13:00:45;100843.38;;;14.03
73734;BMP280;62039;50.000;9.064;2023-03-01T13:03:25;100855.38;;;14.06
73734;BMP280;62039;50.000;9.064;2023-03-01T13:06:04;100846.00;;;14.03
73734;BMP280;62039;50.000;9.064;2023-03-01T13:08:39;100844.72;;;13.99
73734;BMP280;62039;50.000;9.064;2023-03-01T13:11:15;100844.38;;;13.94
73734;BMP280;62039;50.000;9.064;2023-03-01T13:13:43;100840.28;;;13.92
73734;BMP280;62039;50.000;9.064;2023-03-01T13:19:10;100831.41;;;13.93
73734;BMP280;62039;50.000;9.064;2023-03-01T13:21:38;100826.66;;;13.96
73734;BMP280;62039;50.000;9.064;2023-03-01T13:24:23;100828.81;;;14.01
73734;BMP280;62039;50.000;9.064;2023-03-01T13:27:11;100823.84;;;14.06
73734;BMP280;62039;50.000;9.064;2023-03-01T13:29:49;100823.69;;;14.07
73734;BMP280;62039;50.000;9.064;2023-03-01T13:32:21;100811.88;;;14.03
73734;BMP280;62039;50.000;9.064;2023-03-01T13:35:00;100819.44;;;13.98
73734;BMP280;62039;50.000;9.064;2023-03-01T13:37:33;100808.94;;;13.98
73734;BMP280;62039;50.000;9.064;2023-03-01T13:42:45;100801.84;;;14.07
73734;BMP280;62039;50.000;9.064;2023-03-01T13:45:36;100799.69;;;14.10
73734;BMP280;62039;50.000;9.064;2023-03-01T13:48:11;100786.38;;;14.12
73734;BMP280;62039;50.000;9.064;2023-03-01T13:50:46;100785.22;;;14.15
73734;BMP280;62039;50.000;9.064;2023-03-01T13:53:16;100782.78;;;14.13
73734;BMP280;62039;50.000;9.064;2023-03-01T13:55:45;100792.28;;;14.14
73734;BMP280;62039;50.000;9.064;2023-03-01T13:58:21;100783.75;;;14.12
73734;BMP280;62039;50.000;9.064;2023-03-01T14:00:55;100780.47;;;14.10
73734;BMP280;62039;50.000;9.064;2023-03-01T14:03:24;100783.63;;;14.05
73734;BMP280;62039;50.000;9.064;2023-03-01T14:06:02;100776.28;;;14.01
73734;BMP280;62039;50.000;9.064;2023-03-01T14:08:41;100785.50;;;13.89
73734;BMP280;62039;50.000;9.064;2023-03-01T14:11:52;100784.56;;;13.73
73734;BMP280;62039;50.000;9.064;2023-03-01T14:14:34;100780.47;;;13.63
73734;BMP280;62039;50.000;9.064;2023-03-01T14:17:14;100775.28;;;13.55
73734;BMP280;62039;50.000;9.064;2023-03-01T14:19:47;100776.28;;;13.46
73734;BMP280;62039;50.000;9.064;2023-03-01T14:22:19;100775.31;;;13.39
73734;BMP280;62039;50.000;9.064;2023-03-01T14:24:48;100773.88;;;13.28
73734;BMP280;62039;50.000;9.064;2023-03-01T14:27:15;100776.00;;;13.16
73734;BMP280;62039;50.000;9.064;2023-03-01T14:29:43;100767.78;;;13.03